Terminal Aerodrome Forecast
Issued by NWS Sterling, VA

Home | Current Version | Previous Version | Text Only | Print | Product List | Glossary On
Versions: 1 2 3 4 5 6 7 8 9 10 11 12 13 14 15 16 17 18 19 20 21 22 23 24
000
FTUS41 KLWX 231700
TAFIAD
TAF
KIAD 231721Z 2318/2424 35006KT P6SM FEW250
     FM232300 VRB03KT P6SM SCT250
     FM241400 05007KT P6SM SCT250
     FM241900 08010KT P6SM BKN050=

USA.gov is the U.S. government's official web portal to all federal, state and local government web resources and services.